Saint Louis, Missouri
Traffic Map
Current Weather Conditions
Saint Louis, Missouri
Overcast Light Rain
Overcast
70°
Feels Like: 70°
Wind Chill: 70° Ceiling: 900
Heat Index: 70° Visibility: 9mi
Dew Point: 67° Wind: 10mph
Humidity: 90% Direction: 300° (WNW)
Pressure: 29.9in Gusts: 0mph
Raw Report DataKCPS 211353Z 30009KT 9SM -RA BKN009 OVC013 21/19 A2990 RMK AO2 RAB33 CIG 007V011 SLP120 P0000 T02110194
Traffic Incident Summary
Active as of:
Severity:
Category:
InformationThere was an issue retrieving the traffic information for this location. Please try a different location or try again shortly.
Advertisements